• Join FlightAware (Why Join?)
  • Login
  • US Flag 
10:14AM EDT


 

Airport Tracker/Info


-or-


 

Live Flight TrackerFlight Track Log ✈ TAP1625 ✈ 09-Aug-2012 ✈ LPPT / LIS - LPMA / FNC

Flight Track Log - Related Links

Times and Time Zones

All times are in EDT time to prevent confusion due to time zone crossing. See the TAP1625 flight status page for this flight to view local times or setup timezone preferences in your user account.

Time Position Orientation Groundspeed Altitude Reporting Facility
EDT Latitude Longitude Course Direction KTS MPH feet Rate Location/Type
09:22AM 38.7540 -9.1510 207° Southwest 160 184 1,500  Level FlightAware
09:22AM 38.7400 -9.1600 205° Southwest 165 190 2,100 1,260 Climbing FlightAware
09:23AM 38.7150 -9.1750 214° Southwest 199 229 2,700 960 Climbing FlightAware
09:23AM 38.6990 -9.1890 227° Southwest 237 273 2,900 1,020 Climbing FlightAware
09:24AM 38.6770 -9.2190 226° Southwest 275 316 3,400 1,200 Climbing FlightAware
09:24AM 38.6680 -9.2310 228° Southwest 292 336 3,700 2,700 Climbing FlightAware
09:25AM 38.6280 -9.2870 230° Southwest 292 336 5,900 3,180 Climbing FlightAware
09:25AM 38.6240 -9.2930 230° Southwest 293 337 6,100 2,640 Climbing FlightAware
09:25AM 38.5910 -9.3430 229° Southwest 293 337 7,900 2,640 Climbing FlightAware
09:26AM 38.5630 -9.3840 231° Southwest 298 343 9,200 2,280 Climbing FlightAware
09:26AM 38.5490 -9.4060 229° Southwest 302 348 9,800 2,400 Climbing FlightAware
09:27AM 38.5020 -9.4760 229° Southwest 305 351 12,000 2,760 Climbing FlightAware
09:28AM 38.4150 -9.6040 227° Southwest 299 344 16,300 2,700 Climbing FlightAware
09:29AM 38.3610 -9.6790 227° Southwest 291 335 18,800 1,980 Climbing FlightAware
09:31AM 38.3080 -9.7520 229° Southwest 303 349 20,500 120 Climbing FlightAware
10:28AM 33.8910 -15.6630 218° Southwest 418 481 26,900 60 Climbing FlightAware
10:28AM 33.8370 -15.7140 219° Southwest 411 473 25,500 -2,280 Descending FlightAware
10:29AM 33.7660 -15.7830 218° Southwest 402 463 23,700 -2,400 Descending FlightAware
10:30AM 33.7130 -15.8330 219° Southwest 393 452 22,300 -2,280 Descending FlightAware
10:30AM 33.6500 -15.8940 218° Southwest 387 445 20,700 -2,220 Descending FlightAware
10:31AM 33.5860 -15.9550 219° Southwest 381 438 19,000 -2,100 Descending FlightAware
10:32AM 33.5400 -15.9990 218° Southwest 367 422 17,900 -1,860 Descending FlightAware
10:33AM 33.4790 -16.0570 219° Southwest 343 395 16,400 -1,920 Descending FlightAware
10:33AM 33.4280 -16.1060 218° Southwest 325 374 15,100 -1,860 Descending FlightAware
10:34AM 33.3740 -16.1570 219° Southwest 317 365 13,800 -1,800 Descending FlightAware
10:35AM 33.3280 -16.2010 218° Southwest 321 369 12,600 -1,800 Descending FlightAware
10:35AM 33.2810 -16.2450 218° Southwest 324 373 11,400 -1,800 Descending FlightAware
10:36AM 33.2300 -16.2930 220° Southwest 318 366 10,100 -1,740 Descending FlightAware
10:36AM 33.2120 -16.3110 218° Southwest 320 368 9,700 -1,800 Descending FlightAware
10:37AM 33.1650 -16.3550 218° Southwest 321 369 8,500 -1,740 Descending FlightAware
10:38AM 33.1300 -16.3880 219° Southwest 320 368 7,700 -1,680 Descending FlightAware
10:38AM 33.1020 -16.4150 218° Southwest 319 367 7,000 -1,680 Descending FlightAware
10:38AM 33.0670 -16.4480 218° Southwest 319 367 6,200 -1,560 Descending FlightAware
10:39AM 33.0430 -16.4700 218° Southwest 323 372 5,700 -1,560 Descending FlightAware
10:39AM 33.0080 -16.5030 218° Southwest 325 374 4,900 -1,680 Descending FlightAware
10:40AM 32.9840 -16.5250 218° Southwest 326 375 4,300 -1,620 Descending FlightAware
10:40AM 32.9530 -16.5540 218° Southwest 323 372 3,700 -1,440 Descending FlightAware
10:41AM 32.9220 -16.5830 210° Southwest 321 369 3,000 -600 Descending FlightAware
10:43AM 32.7570 -16.6960 209° Southwest 184 212 1,700 -600 Descending FlightAware
10:44AM 32.7420 -16.7060 246° West 174 200 1,200 -1,080 Descending FlightAware
10:44AM 32.7360 -16.7220 238° Southwest 153 176 1,000 -720 Descending FlightAware
10:45AM 32.7250 -16.7430 225° Southwest 144 166 600 -780 Descending FlightAware
10:45AM 32.7150 -16.7550 225° Southwest 142 163 300 -720 Descending FlightAware